Time;durP1;ratioP1;P1;durP2;ratioP2;P2;SDS_P1;SDS_P2;PMS_P1;PMS_P2;Temp;Humidity;BMP_temperature;BMP_pressure;BME280_temperature;BME280_humidity;BME280_pressure;Samples;Min_cycle;Max_cycle;Signal;HPM_P1;HPM_P2
2022/05/26 00:01:29;;;;;;;2.03;0.65;;;21.80;47.40;20.80;101187.00;;;;5044797;28;20048;-70
2022/05/26 00:04:16;;;;;;;2.80;0.50;;;21.80;47.40;20.80;101185.00;;;;5072727;28;20047;-70
2022/05/26 00:07:02;;;;;;;1.85;0.60;;;21.80;47.40;20.80;101191.00;;;;5072890;28;20041;-70
2022/05/26 00:09:48;;;;;;;3.17;0.75;;;21.80;47.40;20.70;101179.00;;;;5060846;28;20393;-70
2022/05/26 00:12:34;;;;;;;1.80;0.70;;;21.80;47.40;20.80;101182.00;;;;5060695;28;20045;-70
2022/05/26 00:15:20;;;;;;;3.53;0.93;;;21.70;47.40;20.70;101185.00;;;;5059347;28;20044;-70
2022/05/26 00:18:06;;;;;;;3.35;0.90;;;21.80;47.40;20.70;101180.00;;;;5060717;28;20029;-70
2022/05/26 00:20:52;;;;;;;2.38;0.80;;;21.70;47.40;20.70;101178.00;;;;5062166;28;20402;-70
2022/05/26 00:23:38;;;;;;;1.15;0.75;;;21.70;47.50;20.70;101175.00;;;;5059813;28;20036;-70
2022/05/26 00:26:24;;;;;;;2.72;0.60;;;21.70;47.60;20.70;101174.00;;;;5060039;28;20051;-70
2022/05/26 00:29:11;;;;;;;1.05;0.70;;;21.70;47.60;20.70;101167.00;;;;5043509;28;20047;-70
2022/05/26 00:31:57;;;;;;;2.25;0.90;;;21.70;47.70;20.70;101175.00;;;;5061649;28;20132;-70
2022/05/26 00:34:43;;;;;;;2.75;0.80;;;21.70;47.80;20.70;101173.00;;;;5062706;28;20029;-70
2022/05/26 00:37:29;;;;;;;5.65;0.98;;;21.70;47.90;20.70;101168.00;;;;5058412;28;20064;-70
2022/05/26 00:40:15;;;;;;;1.55;0.77;;;21.70;47.90;20.70;101168.00;;;;5059700;28;20069;-70
2022/05/26 00:43:01;;;;;;;0.73;0.65;;;21.70;48.00;20.70;101169.00;;;;5059177;28;20037;-70
2022/05/26 00:46:00;;;;;;;2.08;0.90;;;21.70;48.00;20.70;101169.00;;;;5046951;28;20044;-70
2022/05/26 00:48:51;;;;;;;;;;;21.70;48.10;20.70;101174.00;;;;5052058;28;20609;-70
2022/05/26 00:51:38;;;;;;;1.17;0.70;;;21.70;47.90;20.70;101167.00;;;;5076687;28;19920;-70
2022/05/26 00:54:24;;;;;;;1.00;0.70;;;21.70;48.00;20.70;101174.00;;;;5047468;28;20041;-70
2022/05/26 00:57:18;;;;;;;3.60;1.00;;;21.60;48.00;20.70;101164.00;;;;5051819;28;20049;-70
2022/05/26 01:00:13;;;;;;;0.90;0.60;;;21.70;48.20;20.70;101160.00;;;;5049817;28;20379;-70
2022/05/26 01:03:38;;;;;;;2.28;0.85;;;21.70;48.30;20.70;101167.00;;;;5065591;28;20070;-70
2022/05/26 01:06:34;;;;;;;1.95;0.80;;;21.70;48.30;20.70;101171.00;;;;5053193;28;20063;-70
2022/05/26 01:09:20;;;;;;;1.80;1.23;;;21.70;48.30;20.70;101167.00;;;;5062165;28;20059;-70
2022/05/26 01:12:06;;;;;;;1.65;0.82;;;21.60;48.30;20.60;101167.00;;;;5050877;28;20391;-70
2022/05/26 01:14:56;;;;;;;1.98;1.10;;;21.70;48.40;20.70;101172.00;;;;5060665;28;20154;-70
2022/05/26 01:18:12;;;;;;;2.38;1.20;;;21.70;48.50;20.70;101170.00;;;;5049615;28;20040;-70
2022/05/26 01:21:16;;;;;;;2.00;1.48;;;21.70;48.60;20.60;101180.00;;;;5070550;28;20040;-70
2022/05/26 01:24:33;;;;;;;3.20;1.20;;;21.70;48.60;20.60;101175.00;;;;5047888;28;20036;-70
2022/05/26 01:27:50;;;;;;;1.75;1.52;;;21.70;48.80;20.60;101184.00;;;;5073052;28;20040;-70
2022/05/26 01:30:58;;;;;;;7.32;2.20;;;21.70;48.80;20.60;101182.00;;;;5051179;28;20048;-70
2022/05/26 01:33:54;;;;;;;2.83;1.90;;;21.70;48.90;20.60;101177.00;;;;5064622;28;20120;-70
2022/05/26 01:37:12;;;;;;;4.07;1.90;;;21.60;48.90;20.60;101169.00;;;;5072961;28;20068;-70
2022/05/26 01:40:22;;;;;;;2.63;2.13;;;21.70;49.10;20.60;101180.00;;;;5048737;28;20029;-70
2022/05/26 01:43:18;;;;;;;2.60;1.90;;;21.70;49.20;20.60;101184.00;;;;5065451;28;20113;-70
2022/05/26 01:46:22;;;;;;;2.70;1.70;;;21.70;49.20;20.60;101183.00;;;;5052233;28;20151;-70
2022/05/26 01:49:24;;;;;;;2.90;2.13;;;21.60;49.30;20.60;101180.00;;;;5046699;28;20032;-70
2022/05/26 01:52:18;;;;;;;4.07;2.17;;;21.60;49.30;20.60;101188.00;;;;5074873;28;20059;-70
2022/05/26 01:55:17;;;;;;;5.20;2.03;;;21.60;49.30;20.60;101187.00;;;;5058770;28;20124;-70
2022/05/26 01:58:32;;;;;;;5.15;2.30;;;21.60;49.50;20.60;101187.00;;;;5057515;28;20083;-70
2022/05/26 02:01:24;;;;;;;4.43;2.55;;;21.60;49.40;20.60;101192.00;;;;5050036;28;20039;-70
2022/05/26 02:04:40;;;;;;;2.45;2.20;;;21.60;49.50;20.60;101191.00;;;;5047485;28;20541;-70
2022/05/26 02:07:35;;;;;;;2.40;1.98;;;21.60;49.50;20.60;101194.00;;;;5049660;28;20203;-70
2022/05/26 02:11:10;;;;;;;3.67;2.55;;;21.60;49.50;20.60;101204.00;;;;5050909;28;20134;-70
2022/05/26 02:14:12;;;;;;;5.25;2.45;;;21.60;49.60;20.60;101204.00;;;;5035442;28;20404;-70
2022/05/26 02:17:23;;;;;;;3.50;2.42;;;21.60;49.50;20.60;101198.00;;;;5045068;28;20464;-70
2022/05/26 02:20:19;;;;;;;2.97;2.33;;;21.60;50.40;20.60;101209.00;;;;5048093;28;20047;-70
2022/05/26 02:23:32;;;;;;;3.53;2.20;;;21.70;49.70;20.60;101214.00;;;;5029768;28;20053;-70
2022/05/26 02:26:18;;;;;;;4.95;2.70;;;21.60;49.80;20.60;101217.00;;;;5040716;28;20245;-70
2022/05/26 02:32:09;;;;;;;7.00;3.50;;;21.60;49.70;20.60;101225.00;;;;5041886;28;20449;-70
2022/05/26 02:34:59;;;;;;;4.13;2.67;;;21.60;49.70;20.60;101229.00;;;;5036186;28;20479;-70
2022/05/26 02:37:47;;;;;;;2.90;2.65;;;21.60;49.80;20.60;101223.00;;;;5044718;28;20197;-70
2022/05/26 02:40:33;;;;;;;;;;;21.60;49.90;20.60;101217.00;;;;5043299;28;20045;-70
2022/05/26 02:43:27;;;;;;;3.70;2.35;;;21.60;49.50;20.60;101220.00;;;;5038646;28;19920;-70
2022/05/26 02:46:38;;;;;;;3.47;2.60;;;21.70;50.50;20.60;101220.00;;;;5038381;28;20083;-70
2022/05/26 02:50:16;;;;;;;2.97;2.67;;;21.60;49.90;20.60;101232.00;;;;5041364;28;20056;-70
2022/05/26 02:53:27;;;;;;;3.85;2.80;;;21.60;49.90;20.60;101233.00;;;;5027572;28;20125;-70
2022/05/26 02:56:51;;;;;;;4.47;2.30;;;21.60;50.00;20.60;101230.00;;;;5058864;28;20037;-70
2022/05/26 03:00:02;;;;;;;5.93;3.35;;;21.70;50.00;20.60;101236.00;;;;5040536;28;20040;-70
2022/05/26 03:03:03;;;;;;;3.38;2.72;;;21.70;50.20;20.60;101242.00;;;;5054144;28;20045;-70
2022/05/26 03:06:42;;;;;;;3.88;2.67;;;21.70;50.30;20.60;101247.00;;;;5055053;28;20037;-70
2022/05/26 03:09:28;;;;;;;3.00;2.65;;;21.60;50.20;20.60;101245.00;;;;5006272;28;20080;-70
2022/05/26 03:12:29;;;;;;;3.05;2.53;;;21.60;50.30;20.60;101232.00;;;;5000765;28;20457;-70
2022/05/26 03:15:15;;;;;;;4.15;2.50;;;21.70;50.40;20.70;101232.00;;;;5039457;28;20082;-70
2022/05/26 03:18:02;;;;;;;4.65;2.85;;;21.70;50.30;20.70;101244.00;;;;5047509;28;20479;-70
2022/05/26 03:20:48;;;;;;;4.93;3.05;;;21.70;50.30;20.70;101241.00;;;;5040868;28;20098;-70
2022/05/26 03:23:36;;;;;;;5.93;3.10;;;21.70;50.40;20.70;101237.00;;;;5040946;28;20127;-71
2022/05/26 03:26:22;;;;;;;4.45;2.92;;;21.70;50.40;20.70;101244.00;;;;5043449;28;20144;-71
2022/05/26 03:29:08;;;;;;;5.50;3.00;;;21.70;50.60;20.70;101243.00;;;;5041648;28;20092;-70
2022/05/26 03:31:54;;;;;;;3.42;2.88;;;21.70;50.50;20.70;101244.00;;;;5037733;28;20059;-71
2022/05/26 03:40:58;;;;;;;3.95;3.15;;;21.70;50.50;20.70;101261.00;;;;5043556;28;20102;-70
2022/05/26 03:43:48;;;;;;;4.63;3.65;;;21.70;50.60;20.70;101254.00;;;;5051306;28;20041;-70
2022/05/26 03:46:34;;;;;;;6.68;3.45;;;21.70;50.70;20.70;101259.00;;;;5026061;28;20124;-70
2022/05/26 03:49:20;;;;;;;3.33;2.67;;;21.70;50.60;20.70;101259.00;;;;5052529;28;20044;-70
2022/05/26 03:52:07;;;;;;;5.10;4.10;;;21.80;50.70;20.70;101262.00;;;;5045239;28;20151;-70
2022/05/26 03:54:53;;;;;;;4.57;3.58;;;21.70;50.70;20.70;101264.00;;;;5050971;28;20095;-70
2022/05/26 03:58:01;;;;;;;3.67;3.13;;;21.70;50.80;20.70;101267.00;;;;5033994;28;20037;-70
2022/05/26 04:00:47;;;;;;;5.05;3.47;;;21.80;50.70;20.70;101271.00;;;;5037395;28;20402;-70
2022/05/26 04:03:33;;;;;;;5.60;3.60;;;21.70;50.70;20.80;101276.00;;;;5058225;28;20490;-70
2022/05/26 04:06:19;;;;;;;4.75;3.53;;;21.70;50.70;20.80;101272.00;;;;5027585;28;20041;-70
2022/05/26 04:09:05;;;;;;;7.40;4.20;;;21.80;50.80;20.80;101273.00;;;;5043949;28;20056;-70
2022/05/26 04:11:53;;;;;;;3.80;3.35;;;21.80;50.80;20.80;101275.00;;;;5041899;28;20087;-70
2022/05/26 04:14:39;;;;;;;7.40;4.07;;;21.80;50.80;20.80;101277.00;;;;5041683;28;20036;-70
2022/05/26 04:17:25;;;;;;;7.68;4.50;;;21.80;50.80;20.80;101286.00;;;;5057669;28;20044;-70
2022/05/26 04:20:14;;;;;;;6.78;4.88;;;21.80;50.90;20.70;101279.00;;;;5050752;28;20041;-70
2022/05/26 04:23:00;;;;;;;7.18;4.80;;;21.80;51.00;20.70;101286.00;;;;5052671;28;20050;-70
2022/05/26 04:25:47;;;;;;;6.32;4.35;;;21.80;50.90;20.70;101296.00;;;;5039507;28;20040;-70
2022/05/26 04:28:33;;;;;;;6.82;4.70;;;21.80;50.90;20.80;101302.00;;;;5051505;28;20371;-70
2022/05/26 04:31:19;;;;;;;5.95;4.30;;;21.80;51.00;20.80;101298.00;;;;5043795;28;20041;-70
2022/05/26 04:34:05;;;;;;;5.15;4.22;;;21.80;50.90;20.80;101303.00;;;;5044700;28;20029;-70
2022/05/26 04:36:51;;;;;;;6.25;4.93;;;21.90;51.00;20.80;101294.00;;;;5045845;28;20036;-70
2022/05/26 04:39:37;;;;;;;6.55;4.65;;;21.80;51.10;20.80;101302.00;;;;5054863;28;20059;-70
2022/05/26 04:42:24;;;;;;;5.97;4.70;;;21.80;51.00;20.80;101297.00;;;;5061776;28;20040;-70
2022/05/26 04:45:11;;;;;;;9.00;5.50;;;21.80;51.10;20.80;101305.00;;;;5067853;28;20754;-70
2022/05/26 04:47:58;;;;;;;6.43;4.65;;;21.80;51.10;20.80;101305.00;;;;5045019;28;20033;-70
2022/05/26 04:50:44;;;;;;;6.65;4.75;;;21.80;51.10;20.80;101307.00;;;;5045581;28;20052;-70
2022/05/26 04:53:32;;;;;;;6.82;5.10;;;21.80;51.10;20.80;101312.00;;;;5046291;28;20428;-70
2022/05/26 04:56:18;;;;;;;6.47;4.38;;;21.80;51.20;20.80;101313.00;;;;5061855;28;20048;-71
2022/05/26 04:59:05;;;;;;;6.88;4.63;;;21.80;51.20;20.80;101315.00;;;;5060412;28;20033;-70
2022/05/26 05:01:51;;;;;;;7.32;4.60;;;21.80;51.10;20.80;101306.00;;;;5065844;28;20045;-70
2022/05/26 05:04:38;;;;;;;7.60;5.22;;;21.80;51.20;20.80;101320.00;;;;5048443;28;20033;-70
2022/05/26 05:07:24;;;;;;;8.70;5.28;;;21.80;51.20;20.80;101321.00;;;;5075063;28;20056;-70
2022/05/26 05:10:10;;;;;;;10.80;5.45;;;21.80;51.10;20.80;101319.00;;;;5065247;28;20131;-70
2022/05/26 05:12:57;;;;;;;9.32;4.70;;;21.80;51.20;20.80;101335.00;;;;5061041;28;20036;-70
2022/05/26 05:15:50;;;;;;;9.20;5.47;;;21.80;51.10;20.80;101338.00;;;;5048154;28;20043;-70
2022/05/26 05:18:36;;;;;;;6.10;4.85;;;21.80;51.30;20.80;101339.00;;;;5048297;28;20045;-70
2022/05/26 05:21:27;;;;;;;8.30;5.63;;;21.80;51.20;20.80;101341.00;;;;5060738;28;20052;-70
2022/05/26 05:25:10;;;;;;;8.55;5.15;;;21.80;51.30;20.80;101358.00;;;;5044447;28;20041;-70
2022/05/26 05:28:09;;;;;;;6.57;4.70;;;21.80;51.40;20.70;101363.00;;;;5047920;28;20469;-70
2022/05/26 05:31:06;;;;;;;6.90;4.25;;;21.80;51.30;20.80;101367.00;;;;5035877;28;20050;-70
2022/05/26 05:34:02;;;;;;;6.45;5.32;;;21.80;51.30;20.80;101369.00;;;;5052916;28;20194;-70
2022/05/26 05:36:48;;;;;;;9.57;4.95;;;21.80;51.30;20.80;101373.00;;;;5050489;28;20033;-70
2022/05/26 05:39:34;;;;;;;7.35;4.47;;;21.80;51.20;20.70;101368.00;;;;5074999;28;20045;-70
2022/05/26 05:42:21;;;;;;;7.55;4.60;;;21.80;51.30;20.80;101364.00;;;;5062894;28;20044;-70
2022/05/26 05:45:08;;;;;;;7.60;4.18;;;21.80;51.30;20.80;101374.00;;;;5053525;28;20045;-70
2022/05/26 05:47:54;;;;;;;12.10;4.72;;;21.80;51.30;20.80;101369.00;;;;5041884;28;20043;-70
2022/05/26 05:50:40;;;;;;;10.50;4.97;;;21.80;51.30;20.80;101377.00;;;;5040149;28;20049;-70
2022/05/26 05:53:26;;;;;;;11.27;4.30;;;21.80;51.30;20.80;101375.00;;;;5057824;28;20032;-70
2022/05/26 05:56:12;;;;;;;7.90;4.38;;;21.80;51.30;20.80;101370.00;;;;5062670;28;20043;-70
2022/05/26 05:58:58;;;;;;;8.40;4.55;;;21.90;51.40;20.80;101379.00;;;;5060216;28;20166;-70
2022/05/26 06:01:44;;;;;;;7.18;3.95;;;21.90;51.40;20.80;101380.00;;;;5043895;28;20056;-70
2022/05/26 06:04:30;;;;;;;8.38;4.47;;;21.80;51.30;20.80;101384.00;;;;5033734;28;20037;-70
2022/05/26 06:07:19;;;;;;;7.32;4.75;;;21.80;51.30;20.80;101385.00;;;;5037298;28;20045;-70
2022/05/26 06:10:11;;;;;;;8.05;4.30;;;21.80;51.40;20.80;101400.00;;;;5042757;28;20045;-70
2022/05/26 06:12:58;;;;;;;10.82;4.38;;;21.80;51.40;20.80;101390.00;;;;5054413;28;20555;-70
2022/05/26 06:15:46;;;;;;;10.57;4.20;;;21.80;51.40;20.80;101395.00;;;;5051804;28;20059;-70
2022/05/26 06:18:32;;;;;;;9.00;4.45;;;21.80;51.40;20.80;101399.00;;;;4991328;28;1033822;-70
2022/05/26 06:21:18;;;;;;;7.47;4.10;;;21.80;51.40;20.80;101406.00;;;;5044042;28;20051;-70
2022/05/26 06:24:05;;;;;;;9.20;4.05;;;21.80;51.30;20.80;101402.00;;;;5043504;28;20417;-70
2022/05/26 06:26:51;;;;;;;6.82;4.18;;;21.80;51.30;20.80;101404.00;;;;5025357;28;20163;-70
2022/05/26 06:29:49;;;;;;;12.82;4.93;;;21.80;51.40;20.80;101406.00;;;;5058903;28;20385;-70
2022/05/26 06:39:00;;;;;;;9.25;4.18;;;21.80;51.40;20.80;101410.00;;;;5033745;28;20056;-70
2022/05/26 06:44:50;;;;;;;8.82;3.97;;;21.80;51.30;20.80;101421.00;;;;5057425;28;20051;-70
2022/05/26 06:47:37;;;;;;;5.68;3.53;;;21.80;51.30;20.80;101419.00;;;;5042293;28;20045;-70
2022/05/26 06:50:23;;;;;;;9.23;4.25;;;21.80;51.30;20.80;101425.00;;;;5038315;28;20075;-70
2022/05/26 06:53:09;;;;;;;8.52;3.72;;;21.80;51.30;20.80;101426.00;;;;5053268;28;20044;-70
2022/05/26 06:55:55;;;;;;;9.15;4.75;;;21.80;51.30;20.80;101424.00;;;;5041744;28;20147;-70
2022/05/26 06:58:41;;;;;;;9.27;4.30;;;21.90;51.30;20.80;101428.00;;;;5041776;28;20045;-70
2022/05/26 07:01:27;;;;;;;6.03;3.63;;;21.90;51.20;20.80;101438.00;;;;5047209;28;20044;-70
2022/05/26 07:04:13;;;;;;;9.57;4.15;;;21.90;51.20;20.80;101428.00;;;;5052248;28;20038;-70
2022/05/26 07:06:59;;;;;;;7.60;3.78;;;21.90;51.10;20.80;101451.00;;;;5053310;28;20388;-70
2022/05/26 07:09:45;;;;;;;10.40;3.38;;;21.90;51.10;20.80;101451.00;;;;5039201;28;20544;-70
2022/05/26 07:12:31;;;;;;;9.70;3.08;;;21.80;51.10;20.80;101452.00;;;;5041704;28;20036;-70
2022/05/26 07:15:18;;;;;;;8.23;3.33;;;21.80;51.10;20.80;101463.00;;;;5037736;28;20402;-70
2022/05/26 07:18:05;;;;;;;7.93;3.50;;;21.80;51.10;20.80;101454.00;;;;5038864;28;20034;-70
2022/05/26 07:20:51;;;;;;;5.72;2.83;;;21.80;51.10;20.80;101450.00;;;;5052065;28;20124;-70
2022/05/26 07:23:37;;;;;;;5.50;3.10;;;21.80;51.00;20.80;101463.00;;;;5027341;28;20048;-70
2022/05/26 07:26:24;;;;;;;11.15;3.60;;;21.80;50.80;20.80;101467.00;;;;5057770;28;20045;-70
2022/05/26 07:29:10;;;;;;;5.70;2.85;;;21.90;50.80;20.80;101461.00;;;;5035633;28;20059;-71
2022/05/26 07:31:56;;;;;;;7.05;2.90;;;21.80;50.70;20.80;101464.00;;;;5047571;28;20057;-70
2022/05/26 07:34:42;;;;;;;8.13;2.90;;;21.80;50.80;20.80;101476.00;;;;5048019;28;20037;-70
2022/05/26 07:43:38;;;;;;;7.07;2.72;;;21.90;50.80;20.80;101482.00;;;;5050251;28;20087;-70
2022/05/26 07:46:25;;;;;;;6.13;2.22;;;21.90;50.60;20.80;101490.00;;;;5029930;28;20588;-70
2022/05/26 07:49:12;;;;;;;10.27;2.75;;;21.90;50.80;20.80;101485.00;;;;5043304;28;20045;-70
2022/05/26 07:52:01;;;;;;;6.28;2.88;;;21.90;50.70;20.80;101493.00;;;;5043891;28;20041;-70
2022/05/26 07:54:47;;;;;;;6.82;2.78;;;21.90;50.60;20.80;101483.00;;;;5054767;28;20037;-70
2022/05/26 07:57:33;;;;;;;5.75;2.85;;;21.90;50.50;20.80;101486.00;;;;5042067;28;20454;-71
2022/05/26 08:00:19;;;;;;;9.65;2.45;;;21.90;50.50;20.80;101488.00;;;;5033714;28;20040;-70
2022/05/26 08:03:05;;;;;;;8.18;2.33;;;21.90;50.40;20.80;101494.00;;;;5059025;28;20256;-70
2022/05/26 08:05:51;;;;;;;6.80;2.55;;;21.90;50.50;20.80;101483.00;;;;5051777;28;20036;-70
2022/05/26 08:08:37;;;;;;;6.13;2.10;;;21.90;50.20;20.80;101495.00;;;;5041175;28;20048;-70
2022/05/26 08:11:24;;;;;;;10.20;2.53;;;21.90;50.20;20.80;101503.00;;;;5045230;28;20041;-70
2022/05/26 08:14:10;;;;;;;6.20;2.17;;;21.90;50.40;20.80;101497.00;;;;5051185;28;20260;-70
2022/05/26 08:16:56;;;;;;;7.43;2.45;;;21.90;50.50;20.80;101507.00;;;;5045798;28;20176;-71
2022/05/26 08:19:42;;;;;;;8.02;2.50;;;21.90;50.30;20.80;101502.00;;;;5038413;28;20522;-71
2022/05/26 08:22:28;;;;;;;6.13;2.55;;;21.90;50.20;20.80;101504.00;;;;5037138;28;20045;-70
2022/05/26 08:25:14;;;;;;;5.93;1.98;;;21.90;50.20;20.80;101505.00;;;;5044157;28;20060;-71
2022/05/26 08:28:00;;;;;;;6.93;2.08;;;21.90;50.20;20.80;101503.00;;;;5043479;28;20037;-70
2022/05/26 08:30:46;;;;;;;9.00;2.33;;;21.90;50.10;20.80;101530.00;;;;5044013;28;20462;-71
2022/05/26 08:33:32;;;;;;;11.00;1.77;;;21.90;50.10;20.80;101531.00;;;;5035679;28;20036;-71
2022/05/26 08:36:21;;;;;;;13.55;2.25;;;21.90;50.00;20.80;101549.00;;;;5045132;28;20549;-70
2022/05/26 08:39:07;;;;;;;4.90;1.73;;;21.90;49.50;20.80;101526.00;;;;5025718;28;20034;-71
2022/05/26 08:41:53;;;;;;;9.48;2.47;;;21.90;49.80;20.80;101537.00;;;;5049849;28;20449;-71
2022/05/26 08:44:39;;;;;;;4.75;1.23;;;21.90;48.90;20.70;101537.00;;;;5029167;28;20041;-70
2022/05/26 08:47:45;;;;;;;6.50;1.30;;;21.90;48.70;20.70;101530.00;;;;5031017;28;20045;-70
2022/05/26 08:50:34;;;;;;;5.82;1.45;;;21.80;48.70;20.70;101537.00;;;;5038557;28;20041;-71
2022/05/26 08:53:25;;;;;;;5.70;1.52;;;21.80;48.80;20.60;101541.00;;;;5051351;28;20127;-71
2022/05/26 08:56:12;;;;;;;6.25;1.58;;;21.70;48.90;20.60;101547.00;;;;5046728;28;20072;-71
2022/05/26 08:59:03;;;;;;;7.25;1.30;;;21.70;48.90;20.60;101547.00;;;;5029859;28;20029;-71
2022/05/26 09:01:50;;;;;;;7.70;1.20;;;21.60;49.00;20.50;101550.00;;;;5030976;28;20070;-71
2022/05/26 09:04:36;;;;;;;4.90;1.30;;;21.60;49.70;20.50;101553.00;;;;5029758;28;20537;-71
2022/05/26 09:13:42;;;;;;;6.80;1.30;;;21.50;48.80;20.50;101559.00;;;;5045163;28;20048;-71
2022/05/26 09:16:29;;;;;;;4.18;0.90;;;21.50;49.40;20.50;101549.00;;;;5046608;28;20080;-70
2022/05/26 09:19:19;;;;;;;;;;;21.50;48.80;20.50;101563.00;;;;5063435;28;20037;-70
2022/05/26 09:22:05;;;;;;;4.20;1.10;;;21.50;49.10;20.50;101557.00;;;;5043457;28;20309;-70
2022/05/26 09:24:51;;;;;;;5.70;1.02;;;21.50;48.60;20.50;101565.00;;;;5030073;28;20041;-70
2022/05/26 09:27:37;;;;;;;7.70;1.27;;;21.50;48.40;20.50;101558.00;;;;5035343;28;20074;-70
2022/05/26 09:30:27;;;;;;;4.65;1.35;;;21.50;48.80;20.50;101567.00;;;;5058905;28;20080;-71
2022/05/26 09:33:38;;;;;;;4.80;1.23;;;21.40;48.70;20.50;101563.00;;;;5057718;28;20146;-70
2022/05/26 09:36:28;;;;;;;6.40;1.13;;;21.40;48.60;20.50;101570.00;;;;5050642;28;20044;-70
2022/05/26 09:39:30;;;;;;;6.32;1.25;;;21.40;48.90;20.50;101572.00;;;;5041747;28;20037;-70
2022/05/26 09:42:16;;;;;;;4.18;0.88;;;21.40;49.00;20.50;101586.00;;;;5056532;28;20372;-70
2022/05/26 09:45:06;;;;;;;4.40;1.20;;;21.40;49.30;20.50;101590.00;;;;5043782;28;20379;-71
2022/05/26 09:47:58;;;;;;;3.45;1.00;;;21.40;49.00;20.50;101574.00;;;;5037425;28;20048;-71
2022/05/26 09:51:23;;;;;;;4.30;1.73;;;21.40;48.90;20.50;101567.00;;;;5029191;28;20479;-72
2022/05/26 09:54:29;;;;;;;4.35;1.13;;;21.40;48.90;20.60;101573.00;;;;5062774;28;20042;-72
2022/05/26 09:57:28;;;;;;;5.50;1.40;;;21.50;49.30;20.60;101565.00;;;;5043548;28;20712;-71
2022/05/26 10:00:33;;;;;;;4.32;1.33;;;21.50;49.70;20.60;101576.00;;;;5044417;28;20431;-73
2022/05/26 10:03:38;;;;;;;6.43;1.63;;;21.50;49.80;20.60;101579.00;;;;5042965;28;20065;-72
2022/05/26 10:07:03;;;;;;;11.32;2.28;;;21.50;50.10;20.60;101585.00;;;;5037867;28;20045;-71
2022/05/26 10:10:20;;;;;;;3.60;1.90;;;21.60;49.60;20.60;101594.00;;;;5050598;28;20538;-71
2022/05/26 10:13:25;;;;;;;5.50;1.60;;;21.60;49.20;20.60;101583.00;;;;5025570;28;20049;-71
2022/05/26 10:16:23;;;;;;;5.22;1.65;;;21.60;49.30;20.60;101586.00;;;;5046899;28;20645;-71
2022/05/26 10:19:14;;;;;;;5.28;1.20;;;21.60;49.10;20.70;101592.00;;;;5055123;28;20120;-71
2022/05/26 10:22:08;;;;;;;4.20;1.30;;;21.60;48.40;20.70;101599.00;;;;5055784;28;20047;-71
2022/05/26 10:25:26;;;;;;;1.50;0.77;;;21.70;48.10;20.70;101596.00;;;;5030074;28;20033;-70
2022/05/26 10:28:21;;;;;;;5.70;1.33;;;21.90;47.90;20.70;101599.00;;;;5049894;28;20043;-70
2022/05/26 10:31:18;;;;;;;4.55;0.98;;;21.70;48.20;20.70;101601.00;;;;5057111;28;20761;-70
2022/05/26 10:34:37;;;;;;;2.25;1.00;;;21.70;48.60;20.70;101588.00;;;;5047837;28;20472;-70
2022/05/26 10:37:51;;;;;;;;;;;21.60;49.00;20.70;101618.00;;;;5026351;28;20401;-70
2022/05/26 10:41:19;;;;;;;4.00;1.00;;;21.70;49.00;20.70;101606.00;;;;5027975;28;19917;-70
2022/05/26 10:44:30;;;;;;;4.95;1.15;;;21.70;47.60;20.70;101600.00;;;;5039554;28;20232;-70
2022/05/26 10:47:28;;;;;;;2.08;1.00;;;21.70;47.40;20.70;101594.00;;;;5046576;28;20053;-70
2022/05/26 10:50:46;;;;;;;1.08;0.60;;;21.70;46.90;20.70;101606.00;;;;5028911;28;20052;-70
2022/05/26 10:53:59;;;;;;;4.18;1.10;;;21.70;46.90;20.70;101595.00;;;;5036648;28;20088;-70
2022/05/26 10:57:02;;;;;;;4.22;0.90;;;21.70;47.80;20.80;101584.00;;;;5038586;28;20045;-70
2022/05/26 11:00:06;;;;;;;4.78;0.98;;;21.70;47.10;20.80;101596.00;;;;5041442;28;20622;-70
2022/05/26 11:03:12;;;;;;;1.98;0.70;;;21.70;46.80;20.80;101590.00;;;;5042627;28;20497;-70
2022/05/26 11:06:11;;;;;;;2.00;0.55;;;21.70;46.70;20.80;101592.00;;;;5038992;28;20241;-70
2022/05/26 11:09:41;;;;;;;1.50;0.52;;;21.80;47.30;20.80;101596.00;;;;5039630;28;20036;-70
2022/05/26 11:12:43;;;;;;;3.40;0.60;;;21.80;46.90;20.90;101588.00;;;;5007047;28;20440;-70
2022/05/26 11:19:23;;;;;;;2.83;0.80;;;21.90;47.10;20.90;101584.00;;;;4946509;28;20039;-70
2022/05/26 11:22:11;;;;;;;2.80;0.73;;;21.90;47.00;21.00;101573.00;;;;5052869;28;20446;-70
2022/05/26 11:24:57;;;;;;;3.00;1.30;;;21.90;46.30;21.00;101579.00;;;;5015071;28;20041;-70
2022/05/26 11:28:03;;;;;;;4.30;0.75;;;22.00;46.40;21.10;101577.00;;;;5037905;28;20526;-70
2022/05/26 11:37:23;;;;;;;;;;;22.10;46.70;21.20;101591.00;;;;5048167;28;20045;-71
2022/05/26 11:40:11;;;;;;;5.45;1.65;;;22.20;47.10;21.20;101597.00;;;;5046354;28;19912;-70
2022/05/26 11:42:58;;;;;;;3.28;1.08;;;22.30;46.30;21.20;101594.00;;;;5050989;28;20037;-70
2022/05/26 11:45:50;;;;;;;4.97;0.95;;;22.30;46.20;21.20;101592.00;;;;5052038;28;20081;-70
2022/05/26 11:48:42;;;;;;;6.35;1.23;;;22.30;46.40;21.20;101598.00;;;;5043283;28;20052;-70
2022/05/26 11:51:39;;;;;;;3.10;1.63;;;22.30;46.80;21.20;101596.00;;;;5054741;28;20483;-70
2022/05/26 11:54:52;;;;;;;6.18;1.10;;;22.30;46.50;21.30;101577.00;;;;5041394;28;20380;-71
2022/05/26 11:57:41;;;;;;;4.35;0.93;;;22.30;46.70;21.20;101580.00;;;;5040637;28;20045;-71
2022/05/26 12:00:40;;;;;;;5.80;1.35;;;22.30;46.70;21.30;101578.00;;;;5042734;28;20041;-71
2022/05/26 12:03:28;;;;;;;6.50;1.08;;;22.40;46.80;21.30;101587.00;;;;5049551;28;20120;-70
2022/05/26 12:06:15;;;;;;;7.47;1.40;;;22.40;46.90;21.30;101582.00;;;;5042466;28;20044;-71
2022/05/26 12:09:03;;;;;;;7.43;1.20;;;22.40;47.00;21.30;101585.00;;;;5027922;28;20140;-70
2022/05/26 12:12:14;;;;;;;4.25;1.23;;;22.40;46.80;21.30;101571.00;;;;5053232;28;20044;-71
2022/05/26 12:15:09;;;;;;;3.45;1.00;;;22.40;46.80;21.30;101563.00;;;;5041890;28;20066;-70
2022/05/26 12:17:58;;;;;;;3.90;0.82;;;22.40;46.90;21.30;101557.00;;;;5035297;28;20517;-70
2022/05/26 12:20:46;;;;;;;3.42;1.20;;;22.40;46.80;21.30;101564.00;;;;5054155;28;20559;-70
2022/05/26 12:23:32;;;;;;;;;;;22.50;47.10;21.30;101559.00;;;;5054905;28;20195;-71
2022/05/26 12:26:47;;;;;;;6.78;0.88;;;22.40;47.10;21.30;101553.00;;;;5048051;28;20289;-70
2022/05/26 12:29:47;;;;;;;4.65;1.10;;;22.50;46.90;21.30;101542.00;;;;5038021;28;20041;-71
2022/05/26 12:32:34;;;;;;;11.77;1.63;;;22.40;46.80;21.30;101542.00;;;;5038738;28;20040;-70
2022/05/26 12:35:46;;;;;;;5.82;1.20;;;22.50;47.00;21.30;101545.00;;;;5029936;28;20457;-70
2022/05/26 12:38:57;;;;;;;9.65;1.50;;;22.50;47.00;21.30;101546.00;;;;5034604;28;20036;-71
2022/05/26 12:42:02;;;;;;;9.15;1.60;;;22.50;46.90;21.30;101539.00;;;;5056514;28;20057;-71
2022/05/26 12:45:29;;;;;;;8.38;1.42;;;22.50;46.90;21.30;101543.00;;;;5054836;28;20044;-71
2022/05/26 12:48:44;;;;;;;7.32;1.50;;;22.50;46.80;21.30;101549.00;;;;5035345;28;20037;-71
2022/05/26 12:51:39;;;;;;;9.60;2.03;;;22.50;46.90;21.40;101539.00;;;;5051519;28;20341;-71
2022/05/26 12:54:25;;;;;;;9.00;1.38;;;22.50;46.80;21.40;101543.00;;;;5062841;28;20126;-71
2022/05/26 12:57:11;;;;;;;5.25;1.58;;;22.60;46.80;21.40;101540.00;;;;5043700;28;20048;-71
2022/05/26 13:00:36;;;;;;;47.58;5.43;;;22.60;46.90;21.40;101547.00;;;;5036845;28;20032;-70
2022/05/26 13:03:31;;;;;;;112.85;8.10;;;22.50;47.10;21.40;101544.00;;;;5042536;28;20490;-70
2022/05/26 13:06:20;;;;;;;156.82;12.65;;;22.60;46.70;21.40;101541.00;;;;5039046;28;20475;-70
2022/05/26 13:10:00;;;;;;;120.15;10.85;;;22.60;46.70;21.40;101524.00;;;;5046426;28;20567;-71
2022/05/26 13:12:46;;;;;;;131.57;11.00;;;22.60;46.60;21.40;101526.00;;;;5033875;28;20083;-71
2022/05/26 13:15:32;;;;;;;200.70;15.35;;;22.60;46.80;21.40;101511.00;;;;5057608;28;20341;-70
2022/05/26 13:18:23;;;;;;;170.10;15.10;;;22.60;46.80;21.40;101513.00;;;;5045653;28;20553;-70
2022/05/26 13:21:25;;;;;;;276.15;23.55;;;22.60;46.70;21.50;101509.00;;;;5044251;28;20037;-71
2022/05/26 13:24:19;;;;;;;264.88;22.52;;;22.60;46.80;21.50;101522.00;;;;5048586;28;20029;-71
2022/05/26 13:27:10;;;;;;;209.07;18.05;;;22.60;47.00;21.50;101523.00;;;;5059287;28;20041;-70